METAR AND TAF INFORMATION
METAR FOR LOWS
ADDS - METARS form results

(1606 UTC 05 April 2020)
Data provider http://aviationweather.gov/metar/data/
 
METAR text: LOWS 051550Z 03010KT 360V070 CAVOK 18/01 Q1021 NOSIG
Conditions at: LOWS (SALZBURG AIRPORT, AT) observed 1550 UTC 05 April 2020
Temperature: 18.0°C (64°F)
Dewpoint: 1.0°C (34°F) [RH = 32%]
Pressure (altimeter): 30.15 inches Hg (1021.0 mb)
Winds: from the NNE (30 degrees) at 12 MPH (10 knots; 5.1 m/s)
Visibility: 6 or more miles (10+ km)
Ceiling: ceiling and visibility are OK
Clouds: unknown
Weather: no significant weather observed at this time

METAR text: LOWS 051520Z 02011KT CAVOK 18/02 Q1021 NOSIG
Conditions at: LOWS (SALZBURG AIRPORT, AT) observed 1520 UTC 05 April 2020
Temperature: 18.0°C (64°F)
Dewpoint: 2.0°C (36°F) [RH = 34%]
Pressure (altimeter): 30.15 inches Hg (1021.0 mb)
Winds: from the NNE (20 degrees) at 13 MPH (11 knots; 5.7 m/s)
Visibility: 6 or more miles (10+ km)
Ceiling: ceiling and visibility are OK
Clouds: unknown
Weather: no significant weather observed at this time

Forecast for: LOWS (SALZBURG AIRPORT, AT)
Text: TAF LOWS 051115Z 0512/0612 04008KT CAVOK TX20/0612Z TN05/0604Z
Forecast period: 1200 to 1800 UTC 05 April 2020
Forecast type: FROM: standard forecast or significant change
Winds: from the NE (40 degrees) at 9 MPH (8 knots; 4.1 m/s)
Visibility: 6 or more miles 10+ km)
Ceiling: unknown
Clouds: missing
Weather: no significant weather forecast for this period
Text: BECMG 0518/0520 15005KT
Forecast period: 1800 UTC 05 April 2020 to 0700 UTC 06 April 2020
Forecast type: BECOMING: Conditions expected to become as follows by 2000 UTC 05 April 2020
Winds: from the SSE (150 degrees) at 6 MPH (5 knots; 2.6 m/s)
Visibility: 6 or more miles 10+ km)
Ceiling: unknown
Clouds: missing
Weather: no significant weather forecast for this period
Text: BECMG 0607/0609 04007KT
Forecast period: 0700 to 1200 UTC 06 April 2020
Forecast type: BECOMING: Conditions expected to become as follows by 0900 UTC 06 April 2020
Winds: from the NE (40 degrees) at 8 MPH (7 knots; 3.6 m/s)
Visibility: 6 or more miles 10+ km)
Ceiling: unknown
Clouds: missing
Weather: no significant weather forecast for this period

 AIRPORT MAP

 RUNWAY INFORMATION
Runway 16 Runway length 9022 ft Runway width 148 ft
Runway elevation 1411 ft Runway displaced threshold 656 ft Runway heading 157
Runway 34 Runway length 9022 ft Runway width 148 ft
Runway elevation 1411 ft Runway displaced threshold 787 ft Runway heading 337

 AIRPORT FREQUENCIES
Type APP Name APP Frequency 123.725 MHZ
Type ATIS Name ATIS Frequency 125.725 MHZ
Type GND Name GND Frequency 121.75 MHZ
Type TWR Name TWR Frequency 118.1 MHZ

 AIRPORT NEAR NAVIGATION AIDS
Type VOR-DME Name Salzburg Frequency 113800 KHZ
Type NDB Name Salzburg Frequency 382 KHZ
Type NDB Name Salzburg Frequency 410 KHZ
Type NDB Name Salzburg Frequency 356 KHZ



Powered by Virtual Airlines Manager [v2.6.2]

Impressum | Datenschutz